Boonville, Indiana
Current Conditions -  °F | °C
As of 4:54 AM on Saturday 01 Nov 2014 (Local Time) from KEVV Reporting Station
Broken Clouds Broken Clouds  
Wind Chill: 28°   Ceiling: 3100
Heat Index: 36°   Visibility: NA
Dew Point: 27°   Wind: 10mph
Humidity: 70%   Direction: 330°NNW
Pressure: 30.29"   Gusts: NA
Location:  38.05°N, 87.27°W
Report Text: KEVV 010954Z AUTO 33009KT BKN031 02/M03 A3029 RMK AO2 SLP260 T00221028 $
Loading
Personal Weather Stations






























Interactive Weather Map
Tropical Storm Tracking
New forecast layout! Learn more

10-Day Weather Forecast

Advertisements
Track Severe Weather on mobile